sensor_id;sensor_type;location;lat;lon;timestamp;pressure;altitude;pressure_sealevel;temperature;humidity
64025;BME280;50266;57.446;26.936;2022-08-19T00:00:34;99818.44;;;20.3;78.28
64025;BME280;50266;57.446;26.936;2022-08-19T00:01:34;99818.88;;;20.33;78.04
64025;BME280;50266;57.446;26.936;2022-08-19T00:02:34;99821.7;;;20.28;78.08
64025;BME280;50266;57.446;26.936;2022-08-19T00:03:34;99816.88;;;20.27;78.18
64025;BME280;50266;57.446;26.936;2022-08-19T00:04:34;99822.89;;;20.28;78.23
64025;BME280;50266;57.446;26.936;2022-08-19T00:05:34;99823.84;;;20.4;77.78
64025;BME280;50266;57.446;26.936;2022-08-19T00:06:34;99824.5;;;20.29;77.73
64025;BME280;50266;57.446;26.936;2022-08-19T00:07:34;99822.78;;;20.26;78.04
64025;BME280;50266;57.446;26.936;2022-08-19T00:08:34;99825.73;;;20.34;77.91
64025;BME280;50266;57.446;26.936;2022-08-19T00:09:34;99826.2;;;20.3;77.98
64025;BME280;50266;57.446;26.936;2022-08-19T00:10:34;99827.35;;;20.28;77.94
64025;BME280;50266;57.446;26.936;2022-08-19T00:11:34;99824.13;;;20.26;78.1
64025;BME280;50266;57.446;26.936;2022-08-19T00:12:34;99830.62;;;20.26;78.13
64025;BME280;50266;57.446;26.936;2022-08-19T00:13:37;99829.67;;;20.32;77.91
64025;BME280;50266;57.446;26.936;2022-08-19T00:14:37;99828.52;;;20.25;78.02
64025;BME280;50266;57.446;26.936;2022-08-19T00:15:37;99826.11;;;20.22;78.17
64025;BME280;50266;57.446;26.936;2022-08-19T00:16:37;99828.23;;;20.32;78.02
64025;BME280;50266;57.446;26.936;2022-08-19T00:17:38;99825.97;;;20.33;77.84
64025;BME280;50266;57.446;26.936;2022-08-19T00:18:37;99822.86;;;20.26;78.19
64025;BME280;50266;57.446;26.936;2022-08-19T00:19:37;99821.16;;;20.32;77.84
64025;BME280;50266;57.446;26.936;2022-08-19T00:20:37;99821.14;;;20.37;77.66
64025;BME280;50266;57.446;26.936;2022-08-19T00:21:37;99822.69;;;20.43;77.3
64025;BME280;50266;57.446;26.936;2022-08-19T00:22:37;99823.16;;;20.39;77.34
64025;BME280;50266;57.446;26.936;2022-08-19T00:23:37;99821.43;;;20.26;77.7
64025;BME280;50266;57.446;26.936;2022-08-19T00:24:37;99822.33;;;20.32;77.63
64025;BME280;50266;57.446;26.936;2022-08-19T00:25:37;99820.82;;;20.33;77.81
64025;BME280;50266;57.446;26.936;2022-08-19T00:26:37;99817.52;;;20.32;77.64
64025;BME280;50266;57.446;26.936;2022-08-19T00:27:37;99818.72;;;20.33;77.55
64025;BME280;50266;57.446;26.936;2022-08-19T00:28:37;99818.01;;;20.3;77.49
64025;BME280;50266;57.446;26.936;2022-08-19T00:29:37;99816.05;;;20.27;77.6
64025;BME280;50266;57.446;26.936;2022-08-19T00:30:37;99816.22;;;20.28;77.52
64025;BME280;50266;57.446;26.936;2022-08-19T00:31:37;99814.98;;;20.22;77.84
64025;BME280;50266;57.446;26.936;2022-08-19T00:32:37;99816.45;;;20.25;77.8
64025;BME280;50266;57.446;26.936;2022-08-19T00:33:37;99815.41;;;20.23;77.81
64025;BME280;50266;57.446;26.936;2022-08-19T00:34:37;99817.2;;;20.16;78.04
64025;BME280;50266;57.446;26.936;2022-08-19T00:35:37;99819.16;;;20.18;78.12
64025;BME280;50266;57.446;26.936;2022-08-19T00:36:38;99816.24;;;20.1;78.21
64025;BME280;50266;57.446;26.936;2022-08-19T00:37:37;99815.45;;;20.19;78.05
64025;BME280;50266;57.446;26.936;2022-08-19T00:38:38;99812.58;;;20.18;78.01
64025;BME280;50266;57.446;26.936;2022-08-19T00:39:37;99812.5;;;20.15;78.31
64025;BME280;50266;57.446;26.936;2022-08-19T00:40:37;99811.84;;;20.19;78.0
64025;BME280;50266;57.446;26.936;2022-08-19T00:41:38;99810.72;;;20.14;78.17
64025;BME280;50266;57.446;26.936;2022-08-19T00:42:37;99808.69;;;20.17;78.2
64025;BME280;50266;57.446;26.936;2022-08-19T00:43:37;99805.91;;;20.17;78.0
64025;BME280;50266;57.446;26.936;2022-08-19T00:44:37;99808.38;;;20.07;78.3
64025;BME280;50266;57.446;26.936;2022-08-19T00:45:37;99807.79;;;20.08;78.23
64025;BME280;50266;57.446;26.936;2022-08-19T00:46:38;99806.16;;;20.14;78.13
64025;BME280;50266;57.446;26.936;2022-08-19T00:47:37;99813.4;;;20.12;78.22
64025;BME280;50266;57.446;26.936;2022-08-19T00:48:37;99810.36;;;20.12;78.19
64025;BME280;50266;57.446;26.936;2022-08-19T00:49:41;99809.0;;;20.11;78.07
64025;BME280;50266;57.446;26.936;2022-08-19T00:50:40;99808.34;;;20.12;78.23
64025;BME280;50266;57.446;26.936;2022-08-19T00:51:43;99810.41;;;20.09;78.53
64025;BME280;50266;57.446;26.936;2022-08-19T00:52:43;99813.13;;;20.11;78.36
64025;BME280;50266;57.446;26.936;2022-08-19T00:53:42;99808.87;;;19.95;78.83
64025;BME280;50266;57.446;26.936;2022-08-19T00:54:42;99813.44;;;19.99;78.91
64025;BME280;50266;57.446;26.936;2022-08-19T00:55:46;99811.53;;;20.03;78.77
64025;BME280;50266;57.446;26.936;2022-08-19T00:56:46;99812.13;;;20.12;78.42
64025;BME280;50266;57.446;26.936;2022-08-19T00:57:50;99812.57;;;20.14;78.29
64025;BME280;50266;57.446;26.936;2022-08-19T00:58:48;99812.13;;;20.12;78.25
64025;BME280;50266;57.446;26.936;2022-08-19T00:59:48;99810.12;;;20.13;78.24
64025;BME280;50266;57.446;26.936;2022-08-19T01:00:53;99813.66;;;20.16;78.21
64025;BME280;50266;57.446;26.936;2022-08-19T01:01:53;99813.69;;;20.19;77.96
64025;BME280;50266;57.446;26.936;2022-08-19T01:02:53;99811.62;;;20.12;78.29
64025;BME280;50266;57.446;26.936;2022-08-19T01:03:53;99810.92;;;20.09;78.38
64025;BME280;50266;57.446;26.936;2022-08-19T01:04:53;99812.16;;;20.15;78.29
64025;BME280;50266;57.446;26.936;2022-08-19T01:05:53;99811.98;;;20.14;78.23
64025;BME280;50266;57.446;26.936;2022-08-19T01:06:53;99811.88;;;20.24;77.75
64025;BME280;50266;57.446;26.936;2022-08-19T01:07:54;99813.59;;;20.18;77.91
64025;BME280;50266;57.446;26.936;2022-08-19T01:08:54;99808.89;;;20.2;77.88
64025;BME280;50266;57.446;26.936;2022-08-19T01:09:53;99810.56;;;20.18;77.97
64025;BME280;50266;57.446;26.936;2022-08-19T01:10:54;99814.38;;;20.09;78.22
64025;BME280;50266;57.446;26.936;2022-08-19T01:11:53;99810.7;;;20.03;78.42
64025;BME280;50266;57.446;26.936;2022-08-19T01:12:53;99813.24;;;20.13;78.14
64025;BME280;50266;57.446;26.936;2022-08-19T01:13:53;99807.95;;;20.19;78.0
64025;BME280;50266;57.446;26.936;2022-08-19T01:14:53;99811.16;;;20.2;78.0
64025;BME280;50266;57.446;26.936;2022-08-19T01:15:55;99816.05;;;20.18;77.94
64025;BME280;50266;57.446;26.936;2022-08-19T01:16:53;99810.51;;;20.02;78.44
64025;BME280;50266;57.446;26.936;2022-08-19T01:17:53;99811.78;;;19.91;79.06
64025;BME280;50266;57.446;26.936;2022-08-19T01:18:53;99808.28;;;19.99;78.83
64025;BME280;50266;57.446;26.936;2022-08-19T01:19:53;99810.25;;;20.1;78.39
64025;BME280;50266;57.446;26.936;2022-08-19T01:20:54;99810.64;;;20.06;78.43
64025;BME280;50266;57.446;26.936;2022-08-19T01:22:58;99806.88;;;20.01;78.61
64025;BME280;50266;57.446;26.936;2022-08-19T01:23:58;99804.51;;;20.0;78.58
64025;BME280;50266;57.446;26.936;2022-08-19T01:24:58;99803.27;;;20.03;78.45
64025;BME280;50266;57.446;26.936;2022-08-19T01:25:58;99806.84;;;20.15;77.97
64025;BME280;50266;57.446;26.936;2022-08-19T01:26:58;99806.87;;;20.2;77.62
64025;BME280;50266;57.446;26.936;2022-08-19T01:27:59;99806.41;;;20.26;77.26
64025;BME280;50266;57.446;26.936;2022-08-19T01:29:01;99808.03;;;20.18;77.48
64025;BME280;50266;57.446;26.936;2022-08-19T01:30:01;99810.31;;;20.19;77.56
64025;BME280;50266;57.446;26.936;2022-08-19T01:31:01;99808.36;;;20.14;77.81
64025;BME280;50266;57.446;26.936;2022-08-19T01:32:03;99805.2;;;20.11;77.95
64025;BME280;50266;57.446;26.936;2022-08-19T01:33:03;99806.39;;;20.03;78.42
64025;BME280;50266;57.446;26.936;2022-08-19T01:34:03;99806.42;;;19.98;78.48
64025;BME280;50266;57.446;26.936;2022-08-19T01:35:03;99805.84;;;20.06;78.24
64025;BME280;50266;57.446;26.936;2022-08-19T01:36:07;99811.98;;;20.13;77.96
64025;BME280;50266;57.446;26.936;2022-08-19T01:37:08;99805.33;;;20.15;77.74
64025;BME280;50266;57.446;26.936;2022-08-19T01:38:06;99808.11;;;20.17;77.61
64025;BME280;50266;57.446;26.936;2022-08-19T01:39:08;99808.21;;;20.08;77.94
64025;BME280;50266;57.446;26.936;2022-08-19T01:40:05;99809.05;;;20.08;78.25
64025;BME280;50266;57.446;26.936;2022-08-19T01:41:05;99806.75;;;20.14;77.8
64025;BME280;50266;57.446;26.936;2022-08-19T01:42:07;99804.81;;;20.25;77.23
64025;BME280;50266;57.446;26.936;2022-08-19T01:43:06;99803.05;;;20.17;77.53
64025;BME280;50266;57.446;26.936;2022-08-19T01:44:07;99806.25;;;20.14;77.62
64025;BME280;50266;57.446;26.936;2022-08-19T01:45:09;99806.42;;;20.06;78.09
64025;BME280;50266;57.446;26.936;2022-08-19T01:46:09;99805.67;;;20.07;78.11
64025;BME280;50266;57.446;26.936;2022-08-19T01:47:09;99806.7;;;20.09;78.05
64025;BME280;50266;57.446;26.936;2022-08-19T01:48:09;99806.79;;;20.09;78.06
64025;BME280;50266;57.446;26.936;2022-08-19T01:49:09;99805.41;;;20.15;77.82
64025;BME280;50266;57.446;26.936;2022-08-19T01:50:10;99805.58;;;20.14;77.69
64025;BME280;50266;57.446;26.936;2022-08-19T01:51:10;99805.14;;;20.13;77.8
64025;BME280;50266;57.446;26.936;2022-08-19T01:52:09;99807.62;;;20.08;78.04
64025;BME280;50266;57.446;26.936;2022-08-19T01:53:10;99806.53;;;20.08;77.96
64025;BME280;50266;57.446;26.936;2022-08-19T01:54:11;99805.96;;;20.11;77.79
64025;BME280;50266;57.446;26.936;2022-08-19T01:55:11;99809.34;;;20.11;77.97
64025;BME280;50266;57.446;26.936;2022-08-19T01:56:09;99807.47;;;20.09;78.01
64025;BME280;50266;57.446;26.936;2022-08-19T01:57:11;99808.45;;;19.98;78.44
64025;BME280;50266;57.446;26.936;2022-08-19T01:58:11;99808.11;;;19.95;78.41
64025;BME280;50266;57.446;26.936;2022-08-19T01:59:13;99810.66;;;20.0;78.43
64025;BME280;50266;57.446;26.936;2022-08-19T02:00:11;99813.56;;;19.96;78.6
64025;BME280;50266;57.446;26.936;2022-08-19T02:01:10;99810.75;;;19.9;78.88
64025;BME280;50266;57.446;26.936;2022-08-19T02:02:10;99810.12;;;19.94;78.79
64025;BME280;50266;57.446;26.936;2022-08-19T02:03:10;99815.09;;;19.96;78.65
64025;BME280;50266;57.446;26.936;2022-08-19T02:04:10;99817.98;;;19.99;78.63
64025;BME280;50266;57.446;26.936;2022-08-19T02:05:11;99817.8;;;19.98;78.68
64025;BME280;50266;57.446;26.936;2022-08-19T02:06:10;99816.41;;;19.91;79.02
64025;BME280;50266;57.446;26.936;2022-08-19T02:07:10;99818.55;;;19.86;79.24
64025;BME280;50266;57.446;26.936;2022-08-19T02:08:10;99820.09;;;19.8;79.43
64025;BME280;50266;57.446;26.936;2022-08-19T02:09:10;99820.46;;;19.83;79.35
64025;BME280;50266;57.446;26.936;2022-08-19T02:10:12;99823.46;;;19.8;79.37
64025;BME280;50266;57.446;26.936;2022-08-19T02:11:17;99823.14;;;19.82;79.46
64025;BME280;50266;57.446;26.936;2022-08-19T02:12:14;99821.65;;;19.74;79.56
64025;BME280;50266;57.446;26.936;2022-08-19T02:13:14;99824.59;;;19.74;79.58
64025;BME280;50266;57.446;26.936;2022-08-19T02:14:16;99825.22;;;19.69;79.96
64025;BME280;50266;57.446;26.936;2022-08-19T02:15:17;99826.17;;;19.65;80.1
64025;BME280;50266;57.446;26.936;2022-08-19T02:16:17;99825.55;;;19.55;80.37
64025;BME280;50266;57.446;26.936;2022-08-19T02:17:16;99827.22;;;19.51;80.7
64025;BME280;50266;57.446;26.936;2022-08-19T02:18:16;99831.06;;;19.45;81.11
64025;BME280;50266;57.446;26.936;2022-08-19T02:19:16;99830.49;;;19.46;80.98
64025;BME280;50266;57.446;26.936;2022-08-19T02:20:16;99832.54;;;19.42;81.27
64025;BME280;50266;57.446;26.936;2022-08-19T02:21:16;99833.12;;;19.41;81.45
64025;BME280;50266;57.446;26.936;2022-08-19T02:22:16;99834.21;;;19.47;81.06
64025;BME280;50266;57.446;26.936;2022-08-19T02:23:16;99837.66;;;19.47;81.2
64025;BME280;50266;57.446;26.936;2022-08-19T02:24:16;99836.06;;;19.4;81.42
64025;BME280;50266;57.446;26.936;2022-08-19T02:25:16;99840.8;;;19.42;81.37
64025;BME280;50266;57.446;26.936;2022-08-19T02:26:16;99839.3;;;19.44;81.33
64025;BME280;50266;57.446;26.936;2022-08-19T02:27:16;99838.03;;;19.5;81.01
64025;BME280;50266;57.446;26.936;2022-08-19T02:28:16;99836.39;;;19.51;80.96
64025;BME280;50266;57.446;26.936;2022-08-19T02:29:16;99837.09;;;19.49;81.13
64025;BME280;50266;57.446;26.936;2022-08-19T02:30:16;99837.52;;;19.49;81.28
64025;BME280;50266;57.446;26.936;2022-08-19T02:31:17;99835.39;;;19.67;80.46
64025;BME280;50266;57.446;26.936;2022-08-19T02:32:16;99835.77;;;19.64;80.52
64025;BME280;50266;57.446;26.936;2022-08-19T02:33:16;99832.95;;;19.51;80.87
64025;BME280;50266;57.446;26.936;2022-08-19T02:34:17;99834.77;;;19.45;81.21
64025;BME280;50266;57.446;26.936;2022-08-19T02:35:16;99835.91;;;19.36;81.59
64025;BME280;50266;57.446;26.936;2022-08-19T02:36:16;99834.79;;;19.34;81.88
64025;BME280;50266;57.446;26.936;2022-08-19T02:37:16;99833.59;;;19.3;82.05
64025;BME280;50266;57.446;26.936;2022-08-19T02:38:16;99833.55;;;19.35;82.09
64025;BME280;50266;57.446;26.936;2022-08-19T02:39:16;99833.89;;;19.36;81.87
64025;BME280;50266;57.446;26.936;2022-08-19T02:40:16;99834.73;;;19.35;81.92
64025;BME280;50266;57.446;26.936;2022-08-19T02:41:18;99831.8;;;19.43;81.79
64025;BME280;50266;57.446;26.936;2022-08-19T02:42:16;99835.26;;;19.44;81.61
64025;BME280;50266;57.446;26.936;2022-08-19T02:43:16;99836.52;;;19.43;81.59
64025;BME280;50266;57.446;26.936;2022-08-19T02:44:16;99834.09;;;19.37;81.83
64025;BME280;50266;57.446;26.936;2022-08-19T02:45:21;99832.0;;;19.33;82.09
64025;BME280;50266;57.446;26.936;2022-08-19T02:46:23;99833.88;;;19.35;81.93
64025;BME280;50266;57.446;26.936;2022-08-19T02:47:21;99836.86;;;19.37;81.72
64025;BME280;50266;57.446;26.936;2022-08-19T02:48:22;99837.16;;;19.32;81.75
64025;BME280;50266;57.446;26.936;2022-08-19T02:49:21;99831.85;;;19.32;81.77
64025;BME280;50266;57.446;26.936;2022-08-19T02:50:21;99834.77;;;19.38;81.7
64025;BME280;50266;57.446;26.936;2022-08-19T02:51:23;99835.31;;;19.35;81.56
64025;BME280;50266;57.446;26.936;2022-08-19T02:52:21;99840.41;;;19.29;81.86
64025;BME280;50266;57.446;26.936;2022-08-19T02:53:22;99838.67;;;19.32;81.98
64025;BME280;50266;57.446;26.936;2022-08-19T02:54:21;99837.06;;;19.32;81.86
64025;BME280;50266;57.446;26.936;2022-08-19T02:55:21;99836.86;;;19.43;81.59
64025;BME280;50266;57.446;26.936;2022-08-19T02:56:22;99837.17;;;19.52;80.93
64025;BME280;50266;57.446;26.936;2022-08-19T02:57:21;99844.04;;;19.39;81.42
64025;BME280;50266;57.446;26.936;2022-08-19T02:58:21;99840.94;;;19.34;81.66
64025;BME280;50266;57.446;26.936;2022-08-19T02:59:21;99843.67;;;19.28;81.83
64025;BME280;50266;57.446;26.936;2022-08-19T03:00:21;99844.49;;;19.33;81.7
64025;BME280;50266;57.446;26.936;2022-08-19T03:01:23;99844.91;;;19.32;81.78
64025;BME280;50266;57.446;26.936;2022-08-19T03:02:21;99847.06;;;19.3;81.71
64025;BME280;50266;57.446;26.936;2022-08-19T03:03:22;99846.52;;;19.35;81.51
64025;BME280;50266;57.446;26.936;2022-08-19T03:04:22;99846.38;;;19.38;81.5
64025;BME280;50266;57.446;26.936;2022-08-19T03:05:22;99849.77;;;19.33;81.76
64025;BME280;50266;57.446;26.936;2022-08-19T03:06:23;99853.02;;;19.36;81.55
64025;BME280;50266;57.446;26.936;2022-08-19T03:07:23;99850.1;;;19.39;81.52
64025;BME280;50266;57.446;26.936;2022-08-19T03:08:23;99850.03;;;19.4;81.46
64025;BME280;50266;57.446;26.936;2022-08-19T03:09:23;99856.83;;;19.38;81.61
64025;BME280;50266;57.446;26.936;2022-08-19T03:10:23;99858.38;;;19.32;81.86
64025;BME280;50266;57.446;26.936;2022-08-19T03:11:27;99855.64;;;19.29;82.13
64025;BME280;50266;57.446;26.936;2022-08-19T03:12:24;99858.22;;;19.26;82.12
64025;BME280;50266;57.446;26.936;2022-08-19T03:13:24;99856.62;;;19.27;82.27
64025;BME280;50266;57.446;26.936;2022-08-19T03:14:24;99860.13;;;19.25;82.5
64025;BME280;50266;57.446;26.936;2022-08-19T03:15:24;99862.08;;;19.26;82.42
64025;BME280;50266;57.446;26.936;2022-08-19T03:16:25;99863.15;;;19.3;82.18
64025;BME280;50266;57.446;26.936;2022-08-19T03:17:24;99859.77;;;19.23;82.45
64025;BME280;50266;57.446;26.936;2022-08-19T03:18:24;99863.25;;;19.25;82.35
64025;BME280;50266;57.446;26.936;2022-08-19T03:19:24;99866.77;;;19.29;82.24
64025;BME280;50266;57.446;26.936;2022-08-19T03:20:24;99867.0;;;19.28;82.38
64025;BME280;50266;57.446;26.936;2022-08-19T03:21:25;99863.25;;;19.31;82.28
64025;BME280;50266;57.446;26.936;2022-08-19T03:22:24;99869.57;;;19.31;82.32
64025;BME280;50266;57.446;26.936;2022-08-19T03:23:24;99871.66;;;19.29;82.37
64025;BME280;50266;57.446;26.936;2022-08-19T03:24:24;99869.8;;;19.23;82.82
64025;BME280;50266;57.446;26.936;2022-08-19T03:25:24;99873.8;;;19.15;82.94
64025;BME280;50266;57.446;26.936;2022-08-19T03:26:25;99873.91;;;19.22;82.92
64025;BME280;50266;57.446;26.936;2022-08-19T03:27:24;99875.27;;;19.3;82.77
64025;BME280;50266;57.446;26.936;2022-08-19T03:28:24;99875.59;;;19.28;82.71
64025;BME280;50266;57.446;26.936;2022-08-19T03:29:28;99875.1;;;19.29;82.66
64025;BME280;50266;57.446;26.936;2022-08-19T03:30:26;99877.16;;;19.2;82.91
64025;BME280;50266;57.446;26.936;2022-08-19T03:31:26;99873.91;;;19.23;83.16
64025;BME280;50266;57.446;26.936;2022-08-19T03:32:31;99875.31;;;19.26;83.09
64025;BME280;50266;57.446;26.936;2022-08-19T03:33:32;99877.52;;;19.28;83.18
64025;BME280;50266;57.446;26.936;2022-08-19T03:34:32;99877.52;;;19.22;83.36
64025;BME280;50266;57.446;26.936;2022-08-19T03:35:31;99880.5;;;19.18;83.43
64025;BME280;50266;57.446;26.936;2022-08-19T03:36:31;99876.25;;;19.22;83.32
64025;BME280;50266;57.446;26.936;2022-08-19T03:37:31;99879.2;;;19.27;83.08
64025;BME280;50266;57.446;26.936;2022-08-19T03:38:31;99879.33;;;19.38;82.44
64025;BME280;50266;57.446;26.936;2022-08-19T03:39:31;99885.18;;;19.35;82.45
64025;BME280;50266;57.446;26.936;2022-08-19T03:40:32;99880.95;;;19.32;82.68
64025;BME280;50266;57.446;26.936;2022-08-19T03:41:36;99880.17;;;19.38;82.26
64025;BME280;50266;57.446;26.936;2022-08-19T03:42:31;99881.54;;;19.34;82.65
64025;BME280;50266;57.446;26.936;2022-08-19T03:43:36;99885.36;;;19.36;82.72
64025;BME280;50266;57.446;26.936;2022-08-19T03:44:35;99884.64;;;19.45;82.24
64025;BME280;50266;57.446;26.936;2022-08-19T03:45:35;99883.52;;;19.52;81.81
64025;BME280;50266;57.446;26.936;2022-08-19T03:46:35;99884.54;;;19.53;81.79
64025;BME280;50266;57.446;26.936;2022-08-19T03:47:35;99883.34;;;19.61;81.42
64025;BME280;50266;57.446;26.936;2022-08-19T03:48:36;99887.05;;;19.68;80.95
64025;BME280;50266;57.446;26.936;2022-08-19T03:49:35;99886.86;;;19.72;80.62
64025;BME280;50266;57.446;26.936;2022-08-19T03:50:38;99890.84;;;19.73;80.73
64025;BME280;50266;57.446;26.936;2022-08-19T03:51:37;99889.47;;;19.72;80.61
64025;BME280;50266;57.446;26.936;2022-08-19T03:52:36;99886.52;;;19.8;80.33
64025;BME280;50266;57.446;26.936;2022-08-19T03:53:35;99885.86;;;19.82;80.5
64025;BME280;50266;57.446;26.936;2022-08-19T03:54:35;99887.81;;;19.77;80.69
64025;BME280;50266;57.446;26.936;2022-08-19T03:55:39;99892.67;;;19.81;80.32
64025;BME280;50266;57.446;26.936;2022-08-19T03:56:37;99889.66;;;19.83;80.07
64025;BME280;50266;57.446;26.936;2022-08-19T03:57:36;99894.42;;;19.8;80.15
64025;BME280;50266;57.446;26.936;2022-08-19T03:58:36;99896.38;;;19.87;80.22
64025;BME280;50266;57.446;26.936;2022-08-19T03:59:39;99893.32;;;19.95;79.67
64025;BME280;50266;57.446;26.936;2022-08-19T04:00:36;99895.02;;;19.93;79.74
64025;BME280;50266;57.446;26.936;2022-08-19T04:01:36;99892.83;;;19.94;79.79
64025;BME280;50266;57.446;26.936;2022-08-19T04:02:36;99895.41;;;19.92;79.85
64025;BME280;50266;57.446;26.936;2022-08-19T04:03:37;99895.89;;;19.89;79.85
64025;BME280;50266;57.446;26.936;2022-08-19T04:04:40;99894.87;;;19.98;79.62
64025;BME280;50266;57.446;26.936;2022-08-19T04:05:37;99895.89;;;19.98;79.63
64025;BME280;50266;57.446;26.936;2022-08-19T04:06:38;99898.18;;;20.0;79.71
64025;BME280;50266;57.446;26.936;2022-08-19T04:07:37;99897.72;;;19.97;79.8
64025;BME280;50266;57.446;26.936;2022-08-19T04:08:37;99899.25;;;19.98;79.75
64025;BME280;50266;57.446;26.936;2022-08-19T04:09:37;99902.5;;;20.01;79.6
64025;BME280;50266;57.446;26.936;2022-08-19T04:10:38;99900.73;;;20.02;79.68
64025;BME280;50266;57.446;26.936;2022-08-19T04:11:39;99902.8;;;19.98;79.97
64025;BME280;50266;57.446;26.936;2022-08-19T04:12:40;99900.59;;;19.97;80.29
64025;BME280;50266;57.446;26.936;2022-08-19T04:13:40;99904.38;;;20.03;80.06
64025;BME280;50266;57.446;26.936;2022-08-19T04:14:40;99905.33;;;20.05;79.65
64025;BME280;50266;57.446;26.936;2022-08-19T04:15:40;99907.86;;;20.05;80.05
64025;BME280;50266;57.446;26.936;2022-08-19T04:16:40;99905.93;;;20.06;79.87
64025;BME280;50266;57.446;26.936;2022-08-19T04:17:40;99907.56;;;20.09;80.01
64025;BME280;50266;57.446;26.936;2022-08-19T04:18:40;99908.5;;;20.1;79.96
64025;BME280;50266;57.446;26.936;2022-08-19T04:19:40;99908.38;;;20.14;79.92
64025;BME280;50266;57.446;26.936;2022-08-19T04:20:43;99906.59;;;20.12;80.25
64025;BME280;50266;57.446;26.936;2022-08-19T04:21:42;99910.1;;;20.1;80.14
64025;BME280;50266;57.446;26.936;2022-08-19T04:22:41;99909.07;;;20.08;80.37
64025;BME280;50266;57.446;26.936;2022-08-19T04:23:41;99911.26;;;20.18;79.88
64025;BME280;50266;57.446;26.936;2022-08-19T04:24:42;99912.08;;;20.23;79.59
64025;BME280;50266;57.446;26.936;2022-08-19T04:25:43;99916.23;;;20.25;80.04
64025;BME280;50266;57.446;26.936;2022-08-19T04:26:43;99913.4;;;20.36;78.59
64025;BME280;50266;57.446;26.936;2022-08-19T04:27:42;99914.84;;;20.45;78.13
64025;BME280;50266;57.446;26.936;2022-08-19T04:28:43;99916.73;;;20.48;78.22
64025;BME280;50266;57.446;26.936;2022-08-19T04:29:42;99920.95;;;20.47;78.25
64025;BME280;50266;57.446;26.936;2022-08-19T04:30:44;99919.65;;;20.45;78.52
64025;BME280;50266;57.446;26.936;2022-08-19T04:31:43;99917.86;;;20.43;78.49
64025;BME280;50266;57.446;26.936;2022-08-19T04:32:42;99918.98;;;20.37;78.81
64025;BME280;50266;57.446;26.936;2022-08-19T04:33:43;99917.91;;;20.39;79.47
64025;BME280;50266;57.446;26.936;2022-08-19T04:34:42;99917.76;;;20.41;79.1
64025;BME280;50266;57.446;26.936;2022-08-19T04:35:45;99918.56;;;20.66;78.13
64025;BME280;50266;57.446;26.936;2022-08-19T04:36:44;99920.36;;;20.56;78.92
64025;BME280;50266;57.446;26.936;2022-08-19T04:37:44;99919.85;;;20.59;78.26
64025;BME280;50266;57.446;26.936;2022-08-19T04:38:44;99923.61;;;20.72;77.9
64025;BME280;50266;57.446;26.936;2022-08-19T04:39:44;99921.05;;;20.61;78.62
64025;BME280;50266;57.446;26.936;2022-08-19T04:40:45;99920.22;;;20.63;78.08
64025;BME280;50266;57.446;26.936;2022-08-19T04:41:44;99918.42;;;20.57;78.44
64025;BME280;50266;57.446;26.936;2022-08-19T04:42:44;99919.34;;;20.58;78.72
64025;BME280;50266;57.446;26.936;2022-08-19T04:43:44;99919.3;;;20.52;79.66
64025;BME280;50266;57.446;26.936;2022-08-19T04:44:44;99918.64;;;20.53;79.71
64025;BME280;50266;57.446;26.936;2022-08-19T04:45:44;99917.34;;;20.62;78.96
64025;BME280;50266;57.446;26.936;2022-08-19T04:46:45;99918.0;;;20.6;78.71
64025;BME280;50266;57.446;26.936;2022-08-19T04:47:47;99923.16;;;20.61;78.54
64025;BME280;50266;57.446;26.936;2022-08-19T04:48:48;99918.16;;;20.56;78.6
64025;BME280;50266;57.446;26.936;2022-08-19T04:49:48;99918.12;;;20.65;78.54
64025;BME280;50266;57.446;26.936;2022-08-19T04:50:48;99922.33;;;20.63;79.36
64025;BME280;50266;57.446;26.936;2022-08-19T04:51:49;99923.23;;;20.68;78.46
64025;BME280;50266;57.446;26.936;2022-08-19T04:52:50;99926.52;;;20.69;78.65
64025;BME280;50266;57.446;26.936;2022-08-19T04:53:48;99924.32;;;20.59;79.12
64025;BME280;50266;57.446;26.936;2022-08-19T04:54:48;99926.91;;;20.65;78.64
64025;BME280;50266;57.446;26.936;2022-08-19T04:55:48;99928.59;;;20.65;78.83
64025;BME280;50266;57.446;26.936;2022-08-19T04:56:49;99928.0;;;20.73;78.56
64025;BME280;50266;57.446;26.936;2022-08-19T04:57:48;99930.55;;;20.66;78.75
64025;BME280;50266;57.446;26.936;2022-08-19T04:58:49;99932.59;;;20.67;78.63
64025;BME280;50266;57.446;26.936;2022-08-19T04:59:48;99931.29;;;20.73;78.99
64025;BME280;50266;57.446;26.936;2022-08-19T05:00:48;99929.81;;;20.77;78.66
64025;BME280;50266;57.446;26.936;2022-08-19T05:01:49;99932.66;;;20.75;77.98
64025;BME280;50266;57.446;26.936;2022-08-19T05:02:48;99934.33;;;20.72;78.46
64025;BME280;50266;57.446;26.936;2022-08-19T05:03:48;99933.91;;;20.73;78.43
64025;BME280;50266;57.446;26.936;2022-08-19T05:04:48;99937.16;;;20.77;78.52
64025;BME280;50266;57.446;26.936;2022-08-19T05:05:48;99936.06;;;20.77;78.2
64025;BME280;50266;57.446;26.936;2022-08-19T05:06:49;99935.42;;;20.84;77.06
64025;BME280;50266;57.446;26.936;2022-08-19T05:07:48;99934.35;;;21.12;76.42
64025;BME280;50266;57.446;26.936;2022-08-19T05:08:49;99939.86;;;21.14;76.96
64025;BME280;50266;57.446;26.936;2022-08-19T05:09:48;99939.34;;;21.02;78.11
64025;BME280;50266;57.446;26.936;2022-08-19T05:10:50;99940.69;;;20.98;78.03
64025;BME280;50266;57.446;26.936;2022-08-19T05:11:49;99941.03;;;20.98;77.62
64025;BME280;50266;57.446;26.936;2022-08-19T05:12:49;99942.08;;;21.17;76.72
64025;BME280;50266;57.446;26.936;2022-08-19T05:13:49;99945.53;;;21.06;77.91
64025;BME280;50266;57.446;26.936;2022-08-19T05:14:49;99941.95;;;21.12;76.57
64025;BME280;50266;57.446;26.936;2022-08-19T05:15:58;99945.61;;;21.15;76.7
64025;BME280;50266;57.446;26.936;2022-08-19T05:16:50;99942.52;;;21.08;77.82